createdAt,value
2022-07-27T00:00:17.009Z,18.17
2022-07-27T00:01:16.565Z,18.17
2022-07-27T00:02:16.514Z,18.15
2022-07-27T00:03:16.968Z,18.15
2022-07-27T00:04:16.508Z,18.12
2022-07-27T00:05:16.467Z,18.06
2022-07-27T00:06:16.656Z,18.02
2022-07-27T00:07:17.130Z,17.99
2022-07-27T00:08:16.597Z,17.98
2022-07-27T00:09:17.027Z,17.98
2022-07-27T00:10:16.478Z,17.97
2022-07-27T00:11:16.895Z,17.95
2022-07-27T00:12:16.477Z,17.97
2022-07-27T00:13:16.899Z,17.94
2022-07-27T00:14:16.316Z,17.95
2022-07-27T00:15:16.767Z,17.92
2022-07-27T00:16:17.265Z,17.88
2022-07-27T00:17:16.968Z,17.84
2022-07-27T00:18:16.434Z,17.80
2022-07-27T00:19:16.890Z,17.76
2022-07-27T00:20:16.337Z,17.77
2022-07-27T00:21:16.796Z,17.69
2022-07-27T00:22:16.671Z,17.70
2022-07-27T00:23:17.101Z,17.66
2022-07-27T00:24:16.519Z,17.66
2022-07-27T00:25:16.964Z,17.63
2022-07-27T00:26:16.427Z,17.66
2022-07-27T00:27:16.862Z,17.67
2022-07-27T00:28:16.278Z,17.64
2022-07-27T00:29:16.720Z,17.63
2022-07-27T00:30:17.169Z,17.63
2022-07-27T00:31:16.645Z,17.63
2022-07-27T00:32:16.373Z,17.61
2022-07-27T00:33:17.500Z,17.58
2022-07-27T00:34:17.152Z,17.56
2022-07-27T00:35:16.610Z,17.57
2022-07-27T00:36:17.068Z,17.54
2022-07-27T00:37:16.540Z,17.54
2022-07-27T00:38:16.963Z,17.52
2022-07-27T00:39:16.402Z,17.53
2022-07-27T00:40:16.887Z,17.50
2022-07-27T00:41:16.293Z,17.47
2022-07-27T00:42:16.593Z,17.44
2022-07-27T00:43:17.029Z,17.43
2022-07-27T00:44:16.461Z,17.46
2022-07-27T00:45:16.911Z,17.44
2022-07-27T00:46:16.429Z,17.42
2022-07-27T00:47:16.941Z,17.40
2022-07-27T00:48:16.429Z,17.39
2022-07-27T00:49:17.254Z,17.33
2022-07-27T00:50:16.939Z,17.30
2022-07-27T00:51:16.402Z,17.32
2022-07-27T00:52:17.106Z,17.22
2022-07-27T00:53:16.562Z,17.19
2022-07-27T00:54:16.994Z,17.22
2022-07-27T00:55:16.468Z,17.21
2022-07-27T00:56:16.897Z,17.21
2022-07-27T00:57:16.328Z,17.22
2022-07-27T00:58:16.751Z,17.27
2022-07-27T00:59:17.202Z,17.29
2022-07-27T01:00:16.657Z,17.32
2022-07-27T01:01:17.294Z,17.33
2022-07-27T01:02:17.242Z,17.35
2022-07-27T01:03:17.326Z,17.32
2022-07-27T01:04:16.861Z,17.33
2022-07-27T01:05:16.777Z,17.37
2022-07-27T01:06:16.535Z,17.36
2022-07-27T01:07:16.767Z,17.35
2022-07-27T01:08:17.225Z,17.35
2022-07-27T01:09:16.646Z,17.36
2022-07-27T01:10:17.136Z,17.36
2022-07-27T01:11:16.580Z,17.33
2022-07-27T01:12:16.393Z,17.29
2022-07-27T01:13:16.861Z,17.29
2022-07-27T01:14:16.313Z,17.26
2022-07-27T01:15:16.768Z,17.27
2022-07-27T01:16:17.211Z,17.26
2022-07-27T01:17:16.789Z,17.30
2022-07-27T01:18:17.238Z,17.33
2022-07-27T01:19:16.781Z,17.27
2022-07-27T01:20:17.321Z,17.27
2022-07-27T01:21:16.783Z,17.26
2022-07-27T01:22:16.453Z,17.21
2022-07-27T01:23:16.886Z,17.21
2022-07-27T01:24:16.340Z,17.25
2022-07-27T01:25:16.770Z,17.18
2022-07-27T01:26:16.453Z,17.14
2022-07-27T01:27:16.871Z,17.09
2022-07-27T01:28:16.288Z,17.09
2022-07-27T01:29:16.752Z,17.07
2022-07-27T01:30:17.253Z,17.04
2022-07-27T01:31:16.830Z,17.04
2022-07-27T01:32:16.533Z,17.04
2022-07-27T01:33:16.981Z,17.02
2022-07-27T01:34:16.447Z,16.86
2022-07-27T01:35:16.921Z,16.90
2022-07-27T01:36:16.384Z,16.92
2022-07-27T01:37:16.821Z,17.01
2022-07-27T01:38:17.249Z,17.22
2022-07-27T01:39:16.698Z,17.22
2022-07-27T01:40:17.153Z,17.16
2022-07-27T01:41:16.612Z,17.01
2022-07-27T01:42:17.108Z,16.92
2022-07-27T01:43:16.572Z,16.90
2022-07-27T01:44:17.056Z,16.81
2022-07-27T01:45:16.532Z,16.83
2022-07-27T01:46:17.079Z,16.83
2022-07-27T01:47:16.626Z,16.81
2022-07-27T01:48:17.115Z,16.80
2022-07-27T01:49:16.947Z,16.78
2022-07-27T01:50:17.052Z,16.84
2022-07-27T01:51:16.478Z,16.94
2022-07-27T01:52:17.052Z,16.98
2022-07-27T01:53:16.496Z,16.97
2022-07-27T01:54:16.951Z,16.86
2022-07-27T01:55:16.375Z,16.81
2022-07-27T01:56:16.841Z,16.77
2022-07-27T01:57:17.259Z,16.71
2022-07-27T01:58:16.692Z,16.67
2022-07-27T01:59:17.246Z,16.62
2022-07-27T02:00:16.936Z,16.54
2022-07-27T02:01:16.418Z,16.56
2022-07-27T02:02:16.949Z,16.49
2022-07-27T02:03:16.396Z,16.42
2022-07-27T02:04:16.860Z,16.42
2022-07-27T02:05:16.438Z,16.42
2022-07-27T02:06:16.969Z,16.43
2022-07-27T02:07:16.389Z,16.37
2022-07-27T02:08:16.799Z,16.36
2022-07-27T02:09:17.253Z,16.40
2022-07-27T02:10:16.696Z,16.39
2022-07-27T02:11:17.166Z,16.42
2022-07-27T02:12:16.625Z,16.35
2022-07-27T02:13:22.650Z,16.31
2022-07-27T02:14:16.666Z,16.29
2022-07-27T02:15:17.189Z,16.28
2022-07-27T02:16:16.826Z,16.28
2022-07-27T02:17:17.039Z,16.25
2022-07-27T02:18:18.841Z,16.26
2022-07-27T02:19:17.300Z,16.19
2022-07-27T02:20:16.890Z,16.19
2022-07-27T02:21:16.327Z,16.15
2022-07-27T02:22:17.013Z,16.14
2022-07-27T02:23:16.448Z,16.09
2022-07-27T02:24:16.892Z,16.09
2022-07-27T02:25:16.344Z,16.07
2022-07-27T02:26:16.804Z,16.02
2022-07-27T02:27:17.247Z,16.04
2022-07-27T02:28:16.719Z,16.04
2022-07-27T02:29:17.180Z,16.00
2022-07-27T02:30:17.713Z,16.01
2022-07-27T02:31:16.423Z,16.02
2022-07-27T02:32:16.467Z,16.02
2022-07-27T02:33:17.019Z,16.00
2022-07-27T02:34:16.675Z,16.00
2022-07-27T02:35:19.302Z,16.02
2022-07-27T02:36:16.791Z,15.97
2022-07-27T02:37:17.261Z,15.98
2022-07-27T02:38:16.675Z,16.04
2022-07-27T02:39:17.106Z,16.01
2022-07-27T02:40:16.553Z,16.01
2022-07-27T02:41:16.972Z,16.01
2022-07-27T02:42:16.533Z,16.00
2022-07-27T02:43:16.983Z,16.00
2022-07-27T02:44:16.445Z,15.94
2022-07-27T02:45:16.908Z,15.92
2022-07-27T02:46:16.437Z,15.95
2022-07-27T02:47:17.032Z,15.95
2022-07-27T02:48:16.498Z,15.97
2022-07-27T02:49:17.081Z,15.95
2022-07-27T02:50:16.589Z,15.98
2022-07-27T02:51:17.016Z,16.00
2022-07-27T02:52:16.777Z,15.97
2022-07-27T02:53:17.201Z,15.92
2022-07-27T02:54:16.635Z,15.91
2022-07-27T02:55:17.059Z,15.88
2022-07-27T02:56:16.495Z,15.88
2022-07-27T02:57:16.364Z,15.90
2022-07-27T02:58:16.836Z,15.87
2022-07-27T02:59:16.300Z,15.84
2022-07-27T03:00:16.753Z,15.81
2022-07-27T03:01:17.225Z,15.83
2022-07-27T03:02:16.700Z,15.83
2022-07-27T03:03:17.138Z,15.83
2022-07-27T03:04:16.593Z,15.81
2022-07-27T03:05:17.080Z,15.80
2022-07-27T03:06:16.632Z,15.85
2022-07-27T03:07:17.068Z,15.83
2022-07-27T03:08:16.509Z,15.78
2022-07-27T03:09:16.968Z,15.77
2022-07-27T03:10:16.388Z,15.73
2022-07-27T03:11:16.835Z,15.73
2022-07-27T03:12:17.273Z,15.74
2022-07-27T03:13:16.711Z,15.80
2022-07-27T03:14:17.176Z,15.80
2022-07-27T03:15:16.641Z,15.80
2022-07-27T03:16:17.141Z,15.76
2022-07-27T03:17:16.768Z,15.72
2022-07-27T03:18:17.258Z,15.66
2022-07-27T03:19:16.705Z,15.63
2022-07-27T03:20:17.154Z,15.69
2022-07-27T03:21:16.611Z,15.67
2022-07-27T03:22:16.850Z,15.64
2022-07-27T03:23:17.267Z,15.64
2022-07-27T03:24:16.695Z,15.67
2022-07-27T03:25:17.128Z,15.83
2022-07-27T03:26:16.576Z,15.81
2022-07-27T03:27:17.054Z,15.76
2022-07-27T03:28:16.542Z,15.63
2022-07-27T03:29:16.991Z,15.64
2022-07-27T03:30:16.451Z,15.62
2022-07-27T03:31:16.985Z,15.56
2022-07-27T03:32:16.567Z,15.57
2022-07-27T03:33:17.076Z,15.55
2022-07-27T03:34:16.526Z,15.47
2022-07-27T03:35:16.963Z,15.45
2022-07-27T03:36:16.912Z,15.49
2022-07-27T03:37:16.356Z,15.52
2022-07-27T03:38:16.790Z,15.55
2022-07-27T03:39:16.913Z,15.55
2022-07-27T03:40:16.350Z,15.55
2022-07-27T03:41:16.792Z,15.55
2022-07-27T03:42:16.707Z,15.55
2022-07-27T03:43:17.178Z,15.56
2022-07-27T03:44:16.640Z,15.57
2022-07-27T03:45:17.128Z,15.56
2022-07-27T03:46:16.672Z,15.53
2022-07-27T03:47:17.288Z,15.52
2022-07-27T03:48:16.781Z,15.50
2022-07-27T03:49:17.354Z,15.47
2022-07-27T03:50:16.310Z,15.46
2022-07-27T03:51:16.759Z,15.49
2022-07-27T03:52:17.926Z,15.47
2022-07-27T03:53:16.492Z,15.46
2022-07-27T03:54:16.936Z,15.46
2022-07-27T03:55:16.394Z,15.49
2022-07-27T03:56:16.818Z,15.55
2022-07-27T03:57:17.284Z,15.50
2022-07-27T03:58:16.758Z,15.52
2022-07-27T03:59:17.244Z,15.59
2022-07-27T04:00:16.737Z,15.55
2022-07-27T04:01:17.275Z,15.53
2022-07-27T04:02:16.914Z,15.55
2022-07-27T04:03:16.503Z,15.52
2022-07-27T04:04:16.948Z,15.55
2022-07-27T04:05:16.375Z,15.53
2022-07-27T04:06:16.807Z,15.59
2022-07-27T04:07:17.239Z,15.59
2022-07-27T04:08:16.700Z,15.76
2022-07-27T04:09:17.441Z,15.78
2022-07-27T04:10:16.531Z,15.92
2022-07-27T04:11:18.200Z,15.94
2022-07-27T04:12:17.286Z,15.85
2022-07-27T04:13:16.595Z,15.87
2022-07-27T04:14:16.283Z,15.83
2022-07-27T04:15:16.730Z,15.83
2022-07-27T04:16:17.242Z,15.81
2022-07-27T04:17:53.682Z,15.84
2022-07-27T04:18:17.224Z,15.92
2022-07-27T04:19:16.788Z,16.00
2022-07-27T04:20:16.271Z,16.02
2022-07-27T04:21:16.723Z,16.09
2022-07-27T04:22:17.203Z,16.14
2022-07-27T04:23:16.629Z,16.15
2022-07-27T04:24:17.059Z,16.15
2022-07-27T04:25:16.503Z,16.21
2022-07-27T04:26:16.955Z,16.22
2022-07-27T04:27:16.422Z,16.24
2022-07-27T04:28:16.368Z,16.29
2022-07-27T04:29:20.322Z,16.28
2022-07-27T04:30:16.932Z,16.29
2022-07-27T04:31:16.514Z,16.36
2022-07-27T04:32:16.600Z,16.39
2022-07-27T04:33:17.072Z,16.40
2022-07-27T04:34:16.493Z,16.42
2022-07-27T04:35:16.968Z,16.46
2022-07-27T04:36:16.671Z,16.50
2022-07-27T04:37:17.134Z,16.52
2022-07-27T04:38:16.554Z,16.57
2022-07-27T04:39:16.988Z,16.59
2022-07-27T04:40:16.461Z,16.59
2022-07-27T04:41:16.953Z,16.63
2022-07-27T04:42:16.501Z,16.64
2022-07-27T04:43:16.963Z,16.60
2022-07-27T04:44:16.951Z,16.68
2022-07-27T04:45:16.405Z,16.70
2022-07-27T04:46:16.906Z,16.71
2022-07-27T04:47:16.511Z,16.71
2022-07-27T04:48:16.935Z,16.78
2022-07-27T04:49:16.664Z,16.75
2022-07-27T04:50:16.974Z,16.81
2022-07-27T04:51:16.423Z,16.84
2022-07-27T04:52:16.319Z,16.86
2022-07-27T04:53:16.767Z,16.87
2022-07-27T04:54:17.186Z,16.97
2022-07-27T04:55:16.628Z,16.98
2022-07-27T04:56:17.064Z,16.99
2022-07-27T04:57:17.285Z,17.09
2022-07-27T04:58:16.759Z,17.19
2022-07-27T04:59:17.227Z,17.16
2022-07-27T05:00:16.719Z,17.11
2022-07-27T05:01:17.316Z,17.11
2022-07-27T05:02:17.092Z,17.14
2022-07-27T05:03:16.519Z,17.16
2022-07-27T05:04:17.365Z,17.25
2022-07-27T05:05:16.902Z,17.26
2022-07-27T05:06:16.415Z,17.39
2022-07-27T05:07:16.830Z,17.52
2022-07-27T05:08:17.263Z,17.57
2022-07-27T05:09:16.724Z,17.61
2022-07-27T05:10:20.280Z,17.80
2022-07-27T05:11:17.245Z,17.80
2022-07-27T05:12:16.378Z,17.84
2022-07-27T05:13:16.891Z,18.05
2022-07-27T05:14:16.346Z,18.13
2022-07-27T05:15:16.842Z,18.13
2022-07-27T05:16:17.328Z,18.17
2022-07-27T05:17:16.905Z,18.32
2022-07-27T05:18:16.345Z,18.36
2022-07-27T05:19:16.794Z,18.43
2022-07-27T05:20:17.248Z,18.39
2022-07-27T05:21:16.704Z,18.46
2022-07-27T05:22:17.160Z,18.47
2022-07-27T05:23:16.633Z,18.61
2022-07-27T05:24:17.078Z,18.72
2022-07-27T05:25:16.948Z,18.72
2022-07-27T05:26:16.444Z,18.92
2022-07-27T05:27:16.916Z,18.99
2022-07-27T05:28:16.376Z,18.98
2022-07-27T05:29:16.819Z,19.10
2022-07-27T05:30:17.327Z,19.23
2022-07-27T05:31:16.848Z,19.22
2022-07-27T05:32:17.276Z,19.40
2022-07-27T05:33:16.864Z,19.37
2022-07-27T05:34:16.319Z,19.41
2022-07-27T05:35:16.741Z,19.61
2022-07-27T05:36:17.193Z,19.81
2022-07-27T05:37:16.612Z,19.76
2022-07-27T05:38:17.059Z,19.74
2022-07-27T05:39:16.666Z,19.74
2022-07-27T05:40:16.606Z,19.96
2022-07-27T05:41:17.085Z,19.74
2022-07-27T05:42:16.489Z,19.86
2022-07-27T05:43:16.930Z,19.93
2022-07-27T05:44:16.379Z,19.93
2022-07-27T05:45:16.871Z,20.09
2022-07-27T05:46:16.419Z,20.34
2022-07-27T05:47:16.988Z,20.33
2022-07-27T05:48:16.416Z,20.50
2022-07-27T05:49:17.249Z,20.70
2022-07-27T05:50:17.217Z,20.64
2022-07-27T05:51:16.635Z,20.58
2022-07-27T05:52:16.750Z,20.74
2022-07-27T05:53:17.199Z,20.81
2022-07-27T05:54:16.674Z,20.88
2022-07-27T05:55:17.181Z,20.96
2022-07-27T05:56:16.659Z,21.05
2022-07-27T05:57:17.127Z,20.91
2022-07-27T05:58:16.578Z,20.92
2022-07-27T05:59:17.212Z,20.65
2022-07-27T06:00:16.680Z,20.68
2022-07-27T06:01:17.155Z,20.70
2022-07-27T06:02:16.997Z,20.92
2022-07-27T06:03:16.499Z,21.06
2022-07-27T06:04:17.142Z,20.95
2022-07-27T06:05:17.586Z,21.02
2022-07-27T06:06:17.282Z,20.81
2022-07-27T06:07:16.740Z,20.96
2022-07-27T06:08:17.238Z,21.00
2022-07-27T06:09:16.712Z,20.95
2022-07-27T06:10:17.202Z,20.95
2022-07-27T06:11:16.668Z,21.05
2022-07-27T06:12:17.096Z,20.99
2022-07-27T06:13:16.550Z,20.82
2022-07-27T06:14:17.005Z,20.93
2022-07-27T06:15:16.448Z,20.98
2022-07-27T06:16:16.940Z,21.34
2022-07-27T06:17:16.499Z,21.71
2022-07-27T06:18:16.959Z,22.05
2022-07-27T06:19:16.395Z,22.10
2022-07-27T06:20:16.859Z,22.31
2022-07-27T06:21:16.403Z,22.17
2022-07-27T06:22:16.772Z,22.21
2022-07-27T06:23:17.273Z,22.19
2022-07-27T06:24:16.755Z,21.79
2022-07-27T06:25:17.225Z,21.82
2022-07-27T06:26:16.670Z,21.58
2022-07-27T06:27:17.133Z,21.65
2022-07-27T06:28:16.597Z,21.62
2022-07-27T06:29:17.049Z,21.58
2022-07-27T06:30:16.468Z,21.07
2022-07-27T06:31:16.963Z,21.14
2022-07-27T06:32:16.605Z,21.21
2022-07-27T06:33:16.561Z,21.44
2022-07-27T06:34:16.857Z,21.44
2022-07-27T06:35:16.682Z,21.62
2022-07-27T06:36:17.214Z,21.89
2022-07-27T06:37:16.688Z,22.02
2022-07-27T06:38:16.552Z,22.06
2022-07-27T06:39:17.011Z,21.64
2022-07-27T06:40:16.472Z,22.06
2022-07-27T06:41:16.957Z,22.12
2022-07-27T06:42:16.364Z,22.09
2022-07-27T06:43:16.834Z,21.50
2022-07-27T06:44:17.273Z,21.31
2022-07-27T06:45:16.735Z,21.69
2022-07-27T06:46:17.211Z,21.82
2022-07-27T06:47:16.803Z,22.00
2022-07-27T06:48:17.250Z,22.09
2022-07-27T06:49:17.205Z,22.10
2022-07-27T06:50:16.575Z,22.09
2022-07-27T06:51:17.049Z,22.31
2022-07-27T06:52:16.855Z,22.44
2022-07-27T06:53:20.474Z,22.30
2022-07-27T06:54:17.048Z,22.24
2022-07-27T06:55:16.543Z,22.19
2022-07-27T06:56:17.015Z,22.68
2022-07-27T06:57:16.470Z,22.69
2022-07-27T06:58:16.890Z,22.52
2022-07-27T06:59:16.339Z,22.43
2022-07-27T07:00:16.771Z,22.44
2022-07-27T07:01:17.242Z,22.33
2022-07-27T07:02:16.619Z,22.17
2022-07-27T07:03:17.047Z,22.12
2022-07-27T07:04:16.704Z,22.30
2022-07-27T07:05:16.547Z,22.00
2022-07-27T07:06:16.989Z,22.12
2022-07-27T07:07:16.440Z,22.30
2022-07-27T07:08:16.903Z,22.47
2022-07-27T07:09:16.357Z,22.47
2022-07-27T07:10:16.826Z,22.43
2022-07-27T07:11:17.309Z,22.30
2022-07-27T07:12:17.190Z,22.33
2022-07-27T07:13:16.634Z,22.13
2022-07-27T07:14:17.057Z,21.92
2022-07-27T07:15:16.498Z,21.73
2022-07-27T07:16:17.018Z,21.45
2022-07-27T07:17:16.603Z,21.50
2022-07-27T07:18:17.192Z,21.26
2022-07-27T07:19:16.631Z,21.40
2022-07-27T07:20:17.124Z,21.76
2022-07-27T07:21:16.601Z,22.44
2022-07-27T07:22:16.888Z,23.13
2022-07-27T07:23:16.356Z,24.13
2022-07-27T07:24:16.815Z,23.61
2022-07-27T07:25:17.288Z,23.82
2022-07-27T07:26:16.743Z,24.09
2022-07-27T07:27:17.160Z,24.12
2022-07-27T07:28:16.633Z,24.12
2022-07-27T07:29:17.095Z,24.07
2022-07-27T07:30:16.544Z,24.54
2022-07-27T07:31:17.177Z,24.76
2022-07-27T07:32:16.332Z,24.33
2022-07-27T07:33:16.754Z,24.99
2022-07-27T07:34:17.179Z,25.54
2022-07-27T07:35:16.632Z,25.20
2022-07-27T07:36:17.056Z,25.49
2022-07-27T07:37:16.570Z,25.64
2022-07-27T07:38:17.033Z,25.31
2022-07-27T07:39:16.696Z,25.20
2022-07-27T07:40:41.845Z,25.31
2022-07-27T07:41:16.888Z,25.34
2022-07-27T07:42:16.508Z,25.40
2022-07-27T07:43:16.939Z,25.54
2022-07-27T07:44:16.409Z,25.38
2022-07-27T07:45:16.846Z,25.99
2022-07-27T07:46:16.336Z,26.31
2022-07-27T07:47:16.896Z,26.27
2022-07-27T07:48:16.348Z,26.20
2022-07-27T07:49:17.237Z,26.08
2022-07-27T07:50:16.688Z,25.48
2022-07-27T07:51:17.150Z,24.16
2022-07-27T07:52:16.319Z,25.03
2022-07-27T07:53:16.800Z,25.41
2022-07-27T07:54:17.276Z,25.61
2022-07-27T07:55:16.772Z,26.54
2022-07-27T07:56:17.238Z,26.42
2022-07-27T07:57:16.742Z,26.33
2022-07-27T07:58:17.203Z,26.13
2022-07-27T07:59:16.646Z,25.89
2022-07-27T08:00:17.075Z,24.72
2022-07-27T08:01:16.566Z,24.98
2022-07-27T08:02:17.006Z,25.55
2022-07-27T08:03:16.664Z,25.48
2022-07-27T08:04:17.209Z,26.00
2022-07-27T08:05:16.695Z,26.55
2022-07-27T08:06:17.151Z,26.42
2022-07-27T08:07:16.623Z,25.89
2022-07-27T08:08:17.179Z,26.66
2022-07-27T08:09:16.691Z,26.81
2022-07-27T08:10:18.221Z,26.59
2022-07-27T08:11:16.670Z,26.75
2022-07-27T08:12:17.087Z,26.26
2022-07-27T08:13:21.313Z,25.85
2022-07-27T08:14:17.079Z,26.27
2022-07-27T08:15:16.541Z,26.44
2022-07-27T08:16:17.056Z,27.55
2022-07-27T08:17:16.662Z,28.72
2022-07-27T08:18:17.128Z,28.72
2022-07-27T08:19:16.561Z,29.03
2022-07-27T08:20:17.016Z,28.26
2022-07-27T08:21:16.326Z,28.54
2022-07-27T08:22:16.893Z,29.58
2022-07-27T08:23:16.362Z,28.21
2022-07-27T08:24:16.814Z,28.97
2022-07-27T08:25:17.318Z,29.80
2022-07-27T08:26:16.797Z,29.90
2022-07-27T08:27:17.260Z,30.38
2022-07-27T08:28:16.693Z,30.04
2022-07-27T08:29:17.152Z,30.01
2022-07-27T08:30:16.471Z,30.04
2022-07-27T08:31:18.985Z,30.13
2022-07-27T08:32:16.681Z,31.12
2022-07-27T08:33:17.178Z,31.27
2022-07-27T08:34:16.638Z,31.21
2022-07-27T08:35:17.128Z,30.70
2022-07-27T08:36:16.589Z,30.32
2022-07-27T08:37:17.073Z,30.75
2022-07-27T08:38:16.574Z,32.06
2022-07-27T08:39:41.579Z,32.90
2022-07-27T08:40:40.061Z,33.50
2022-07-27T08:41:16.489Z,32.95
2022-07-27T08:42:16.344Z,32.16
2022-07-27T08:43:23.587Z,31.18
2022-07-27T08:44:16.881Z,30.87
2022-07-27T08:45:16.311Z,30.07
2022-07-27T08:46:16.675Z,29.90
2022-07-27T08:47:17.241Z,29.17
2022-07-27T08:48:16.842Z,28.66
2022-07-27T08:49:16.852Z,28.82
2022-07-27T08:50:16.336Z,28.20
2022-07-27T08:51:16.796Z,27.73
2022-07-27T08:52:16.601Z,28.69
2022-07-27T08:53:17.286Z,28.89
2022-07-27T08:54:16.775Z,29.95
2022-07-27T08:55:17.273Z,30.76
2022-07-27T08:56:16.729Z,29.34
2022-07-27T08:57:17.165Z,29.79
2022-07-27T08:58:16.580Z,30.24
2022-07-27T08:59:17.013Z,30.35
2022-07-27T09:00:16.464Z,29.68
2022-07-27T09:01:16.899Z,29.75
2022-07-27T09:02:17.337Z,30.01
2022-07-27T09:03:19.937Z,30.54
2022-07-27T09:04:16.855Z,30.98
2022-07-27T09:05:17.028Z,31.86
2022-07-27T09:06:16.487Z,31.07
2022-07-27T09:07:16.980Z,31.34
2022-07-27T09:08:16.448Z,31.97
2022-07-27T09:09:17.119Z,32.06
2022-07-27T09:10:16.637Z,30.98
2022-07-27T09:11:17.182Z,30.07
2022-07-27T09:12:17.013Z,30.85
2022-07-27T09:13:16.439Z,31.10
2022-07-27T09:14:16.859Z,29.58
2022-07-27T09:15:16.302Z,30.59
2022-07-27T09:16:18.965Z,31.25
2022-07-27T09:17:47.076Z,31.68
2022-07-27T09:18:16.499Z,29.54
2022-07-27T09:19:17.040Z,29.27
2022-07-27T09:20:18.416Z,29.18
2022-07-27T09:21:16.868Z,29.04
2022-07-27T09:22:16.352Z,28.94
2022-07-27T09:23:16.815Z,28.54
2022-07-27T09:25:16.632Z,27.72
2022-07-27T09:26:30.921Z,28.54
2022-07-27T09:27:17.039Z,28.62
2022-07-27T09:28:16.484Z,28.37
2022-07-27T09:29:17.317Z,29.01
2022-07-27T09:30:17.104Z,28.68
2022-07-27T09:31:16.610Z,28.81
2022-07-27T09:32:16.713Z,27.85
2022-07-27T09:33:17.236Z,27.57
2022-07-27T09:34:16.737Z,26.54
2022-07-27T09:35:17.217Z,26.73
2022-07-27T09:36:16.686Z,26.89
2022-07-27T09:37:17.132Z,27.04
2022-07-27T09:38:16.587Z,27.02
2022-07-27T09:39:17.224Z,27.23
2022-07-27T09:40:17.018Z,26.70
2022-07-27T09:41:16.288Z,26.72
2022-07-27T09:42:42.495Z,27.11
2022-07-27T09:43:52.658Z,27.28
2022-07-27T09:44:32.714Z,27.54
2022-07-27T09:45:16.847Z,27.02
2022-07-27T09:46:16.886Z,26.24
2022-07-27T09:47:16.469Z,25.92
2022-07-27T09:48:16.938Z,26.01
2022-07-27T09:49:16.449Z,26.01
2022-07-27T09:50:17.032Z,25.65
2022-07-27T09:51:58.072Z,26.03
2022-07-27T09:52:17.105Z,25.72
2022-07-27T09:53:41.165Z,25.41
2022-07-27T09:54:17.035Z,25.88
2022-07-27T09:55:16.456Z,25.83
2022-07-27T09:56:16.905Z,25.58
2022-07-27T09:57:16.320Z,25.82
2022-07-27T09:58:16.778Z,25.86
2022-07-27T09:59:17.203Z,25.68
2022-07-27T10:00:16.685Z,25.57
2022-07-27T10:01:17.146Z,25.30
2022-07-27T10:02:16.898Z,25.89
2022-07-27T10:03:16.577Z,26.44
2022-07-27T10:04:17.354Z,26.83
2022-07-27T10:05:16.487Z,26.42
2022-07-27T10:06:17.195Z,26.96
2022-07-27T10:07:17.163Z,26.93
2022-07-27T10:08:16.624Z,27.00
2022-07-27T10:09:17.086Z,27.00
2022-07-27T10:10:16.563Z,25.68
2022-07-27T10:11:17.031Z,25.17
2022-07-27T10:12:16.968Z,25.14
2022-07-27T10:13:16.561Z,25.27
2022-07-27T10:14:16.975Z,25.14
2022-07-27T10:15:16.428Z,24.89
2022-07-27T10:16:17.081Z,24.93
2022-07-27T10:17:16.796Z,24.66
2022-07-27T10:18:17.260Z,25.23
2022-07-27T10:19:16.738Z,26.44
2022-07-27T10:20:17.336Z,27.17
2022-07-27T10:21:16.792Z,26.68
2022-07-27T10:22:16.638Z,26.33
2022-07-27T10:23:17.107Z,26.35
2022-07-27T10:24:16.545Z,27.00
2022-07-27T10:25:16.686Z,27.21
2022-07-27T10:26:17.104Z,28.11
2022-07-27T10:27:16.540Z,27.73
2022-07-27T10:28:16.970Z,27.49
2022-07-27T10:29:16.400Z,27.59
2022-07-27T10:30:16.827Z,28.14
2022-07-27T10:31:17.243Z,29.35
2022-07-27T10:32:16.862Z,29.68
2022-07-27T10:33:16.307Z,29.68
2022-07-27T10:34:16.785Z,28.81
2022-07-27T10:35:17.275Z,28.23
2022-07-27T10:36:17.066Z,28.58
2022-07-27T10:37:16.616Z,27.79
2022-07-27T10:38:17.095Z,26.28
2022-07-27T10:39:16.514Z,26.11
2022-07-27T10:40:17.018Z,27.07
2022-07-27T10:41:16.469Z,26.92
2022-07-27T10:42:17.104Z,27.49
2022-07-27T10:43:16.544Z,26.76
2022-07-27T10:44:17.647Z,27.09
2022-07-27T10:45:16.388Z,27.20
2022-07-27T10:46:16.900Z,26.81
2022-07-27T10:47:16.471Z,25.95
2022-07-27T10:48:16.966Z,26.61
2022-07-27T10:49:16.946Z,27.17
2022-07-27T10:50:16.511Z,27.28
2022-07-27T10:51:17.435Z,26.73
2022-07-27T10:52:16.590Z,25.49
2022-07-27T10:53:17.016Z,24.98
2022-07-27T10:54:16.453Z,25.93
2022-07-27T10:55:16.913Z,26.19
2022-07-27T10:56:16.338Z,26.38
2022-07-27T10:57:16.804Z,27.73
2022-07-27T10:58:17.245Z,28.07
2022-07-27T10:59:16.689Z,28.28
2022-07-27T11:00:19.782Z,28.39
2022-07-27T11:01:16.693Z,28.93
2022-07-27T11:02:16.950Z,29.79
2022-07-27T11:03:16.424Z,28.96
2022-07-27T11:04:17.320Z,28.68
2022-07-27T11:05:53.627Z,29.92
2022-07-27T11:06:32.291Z,29.93
2022-07-27T11:07:28.138Z,29.77
2022-07-27T11:08:36.413Z,30.00
2022-07-27T11:10:00.532Z,30.16
2022-07-27T11:10:17.083Z,29.09
2022-07-27T11:11:16.526Z,29.24
2022-07-27T11:12:17.167Z,29.44
2022-07-27T11:13:16.591Z,29.72
2022-07-27T11:14:18.338Z,30.31
2022-07-27T11:15:16.480Z,29.99
2022-07-27T11:16:23.757Z,30.24
2022-07-27T11:17:48.502Z,30.65
2022-07-27T11:18:16.953Z,29.07
2022-07-27T11:19:16.918Z,28.86
2022-07-27T11:20:17.208Z,29.46
2022-07-27T11:21:20.426Z,29.16
2022-07-27T11:22:28.463Z,29.56
2022-07-27T11:24:16.936Z,28.75
2022-07-27T11:25:16.767Z,29.37
2022-07-27T11:26:17.194Z,30.20
2022-07-27T11:27:18.433Z,30.01
2022-07-27T11:28:16.553Z,30.36
2022-07-27T11:29:16.994Z,30.66
2022-07-27T11:30:16.439Z,31.48
2022-07-27T11:31:27.587Z,31.49
2022-07-27T11:32:16.392Z,29.93
2022-07-27T11:33:16.858Z,30.06
2022-07-27T11:34:16.549Z,29.16
2022-07-27T11:35:19.938Z,29.66
2022-07-27T11:36:16.942Z,29.00
2022-07-27T11:37:16.383Z,29.28
2022-07-27T11:38:16.829Z,29.03
2022-07-27T11:39:23.390Z,27.75
2022-07-27T11:40:53.597Z,27.40
2022-07-27T11:41:28.237Z,27.34
2022-07-27T11:42:18.099Z,27.27
2022-07-27T11:43:16.946Z,27.97
2022-07-27T11:44:16.641Z,28.37
2022-07-27T11:45:16.633Z,28.65
2022-07-27T11:46:17.144Z,28.92
2022-07-27T11:47:16.907Z,29.26
2022-07-27T11:48:16.372Z,29.16
2022-07-27T11:49:16.859Z,28.79
2022-07-27T11:50:16.419Z,28.64
2022-07-27T11:51:16.873Z,29.24
2022-07-27T11:52:16.291Z,28.62
2022-07-27T11:53:16.729Z,27.93
2022-07-27T11:54:17.151Z,27.99
2022-07-27T11:55:16.599Z,28.31
2022-07-27T11:56:17.014Z,27.62
2022-07-27T11:57:16.453Z,27.14
2022-07-27T11:58:16.895Z,27.20
2022-07-27T11:59:16.612Z,26.85
2022-07-27T12:00:16.699Z,26.97
2022-07-27T12:01:17.196Z,27.04
2022-07-27T12:02:16.633Z,27.52
2022-07-27T12:03:17.192Z,27.54
2022-07-27T12:04:16.704Z,27.83
2022-07-27T12:05:17.266Z,26.93
2022-07-27T12:06:16.815Z,27.09
2022-07-27T12:07:17.278Z,27.23
2022-07-27T12:08:16.712Z,27.31
2022-07-27T12:09:17.170Z,27.14
2022-07-27T12:10:16.626Z,26.86
2022-07-27T12:11:17.051Z,26.62
2022-07-27T12:12:16.739Z,26.78
2022-07-27T12:13:17.211Z,27.07
2022-07-27T12:14:16.690Z,27.07
2022-07-27T12:15:43.923Z,26.82
2022-07-27T12:16:18.448Z,26.76
2022-07-27T12:17:17.171Z,26.21
2022-07-27T12:18:16.741Z,26.14
2022-07-27T12:19:17.188Z,26.41
2022-07-27T12:20:16.651Z,26.30
2022-07-27T12:21:17.120Z,26.24
2022-07-27T12:22:16.472Z,26.47
2022-07-27T12:23:16.904Z,26.51
2022-07-27T12:24:16.404Z,26.65
2022-07-27T12:25:17.258Z,26.50
2022-07-27T12:26:17.008Z,26.47
2022-07-27T12:27:16.463Z,26.27
2022-07-27T12:28:16.908Z,26.26
2022-07-27T12:29:16.588Z,26.38
2022-07-27T12:30:16.657Z,26.52
2022-07-27T12:31:17.226Z,26.44
2022-07-27T12:32:16.656Z,25.60
2022-07-27T12:33:17.137Z,25.19
2022-07-27T12:34:16.605Z,25.10
2022-07-27T12:35:17.106Z,25.26
2022-07-27T12:36:16.536Z,25.75
2022-07-27T12:37:16.957Z,25.73
2022-07-27T12:38:16.394Z,25.48
2022-07-27T12:39:16.817Z,25.54
2022-07-27T12:40:17.279Z,25.45
2022-07-27T12:41:16.703Z,25.69
2022-07-27T12:42:16.653Z,25.75
2022-07-27T12:43:17.088Z,25.62
2022-07-27T12:44:16.555Z,25.42
2022-07-27T12:45:17.014Z,25.24
2022-07-27T12:46:16.516Z,25.03
2022-07-27T12:47:17.095Z,25.02
2022-07-27T12:48:16.596Z,25.16
2022-07-27T12:49:17.366Z,25.23
2022-07-27T12:50:16.698Z,25.17
2022-07-27T12:51:17.130Z,25.19
2022-07-27T12:52:16.713Z,24.99
2022-07-27T12:53:17.183Z,24.86
2022-07-27T12:54:16.617Z,24.66